createdAt,value
2023-01-21T00:03:46.955Z,2.40
2023-01-21T00:06:18.383Z,2.90
2023-01-21T00:08:48.382Z,1.00
2023-01-21T00:11:16.069Z,2.70
2023-01-21T00:13:44.406Z,2.90
2023-01-21T00:16:12.062Z,0.00
2023-01-21T00:21:07.549Z,2.80
2023-01-21T00:26:04.933Z,2.80
2023-01-21T00:28:34.961Z,2.70
2023-01-21T00:31:07.347Z,2.80
2023-01-21T00:33:35.619Z,2.80
2023-01-21T00:36:05.084Z,2.80
2023-01-21T00:38:32.567Z,2.80
2023-01-21T00:41:04.427Z,4.40
2023-01-21T00:43:32.267Z,3.10
2023-01-21T00:45:59.464Z,2.80
2023-01-21T00:48:28.392Z,3.90
2023-01-21T00:51:00.876Z,3.40
2023-01-21T00:53:30.703Z,2.90
2023-01-21T00:56:06.977Z,2.80
2023-01-21T00:58:34.686Z,2.20
2023-01-21T01:01:19.484Z,2.80
2023-01-21T01:03:48.001Z,2.90
2023-01-21T01:06:25.379Z,2.70
2023-01-21T01:08:58.027Z,2.90
2023-01-21T01:11:28.971Z,2.90
2023-01-21T01:14:00.113Z,2.90
2023-01-21T01:18:56.030Z,2.90
2023-01-21T01:23:54.877Z,2.70
2023-01-21T01:26:27.778Z,2.70
2023-01-21T01:28:55.259Z,2.80
2023-01-21T01:31:28.344Z,2.60
2023-01-21T01:33:58.522Z,2.50
2023-01-21T01:38:54.289Z,2.40
2023-01-21T01:41:30.286Z,2.30
2023-01-21T01:44:01.666Z,2.30
2023-01-21T01:46:34.181Z,2.20
2023-01-21T01:49:23.397Z,0.70
2023-01-21T01:51:57.479Z,2.20
2023-01-21T01:54:38.630Z,2.20
2023-01-21T01:57:12.141Z,2.20
2023-01-21T01:59:52.167Z,2.20
2023-01-21T02:02:23.875Z,2.50
2023-01-21T02:04:56.200Z,2.10
2023-01-21T02:07:34.346Z,2.00
2023-01-21T02:17:37.530Z,0.30
2023-01-21T02:22:50.859Z,2.20
2023-01-21T02:25:41.767Z,2.20
2023-01-21T02:28:47.208Z,2.20
2023-01-21T02:31:29.059Z,2.30
2023-01-21T02:34:02.412Z,2.50
2023-01-21T02:36:51.176Z,3.40
2023-01-21T02:39:24.099Z,2.80
2023-01-21T02:42:07.336Z,2.20
2023-01-21T02:44:39.906Z,1.10
2023-01-21T02:47:31.265Z,2.20
2023-01-21T02:50:04.284Z,2.30
2023-01-21T02:52:31.439Z,4.20
2023-01-21T02:55:01.573Z,2.40
2023-01-21T02:57:50.741Z,3.10
2023-01-21T03:00:31.274Z,2.60
2023-01-21T03:05:59.554Z,2.30
2023-01-21T03:09:08.347Z,2.10
2023-01-21T03:14:40.410Z,2.00
2023-01-21T03:17:19.228Z,0.50
2023-01-21T03:19:53.323Z,0.20
2023-01-21T03:22:24.960Z,1.90
2023-01-21T03:24:54.766Z,2.00
2023-01-21T03:27:25.360Z,2.10
2023-01-21T03:29:57.577Z,2.10
2023-01-21T03:32:28.468Z,2.10
2023-01-21T03:34:56.893Z,2.10
2023-01-21T03:37:40.069Z,4.60
2023-01-21T03:40:19.631Z,2.30
2023-01-21T03:42:50.764Z,2.30
2023-01-21T03:45:26.631Z,2.40
2023-01-21T03:47:58.916Z,2.30
2023-01-21T03:50:30.078Z,3.50
2023-01-21T03:55:24.680Z,3.90
2023-01-21T03:57:51.781Z,1.90
2023-01-21T04:02:49.904Z,1.50
2023-01-21T04:05:17.309Z,2.30
2023-01-21T04:07:44.493Z,1.10
2023-01-21T04:15:08.820Z,0.70
2023-01-21T04:17:38.034Z,2.50
2023-01-21T04:20:08.850Z,2.80
2023-01-21T04:25:06.731Z,2.40
2023-01-21T04:27:33.708Z,2.40
2023-01-21T04:30:01.085Z,2.90
2023-01-21T04:34:55.955Z,2.60
2023-01-21T04:42:18.175Z,1.30
2023-01-21T04:47:15.603Z,2.20
2023-01-21T04:49:45.750Z,2.00
2023-01-21T04:52:12.814Z,1.50
2023-01-21T04:54:42.142Z,0.50
2023-01-21T04:57:11.888Z,3.20
2023-01-21T04:59:39.012Z,2.50
2023-01-21T05:04:35.906Z,2.10
2023-01-21T05:09:30.609Z,2.10
2023-01-21T05:11:59.650Z,2.00
2023-01-21T05:14:26.672Z,2.00
2023-01-21T05:16:53.766Z,0.50
2023-01-21T05:19:21.099Z,2.20
2023-01-21T05:21:48.068Z,0.80
2023-01-21T05:24:15.047Z,1.90
2023-01-21T05:26:42.197Z,1.70
2023-01-21T05:29:09.529Z,1.80
2023-01-21T05:31:39.428Z,1.40
2023-01-21T05:36:33.957Z,4.40
2023-01-21T05:46:25.187Z,1.90
2023-01-21T05:51:19.714Z,2.10
2023-01-21T05:53:46.818Z,2.00
2023-01-21T05:56:13.866Z,1.50
2023-01-21T06:01:08.487Z,2.20
2023-01-21T06:08:34.732Z,2.30
2023-01-21T06:16:01.938Z,1.90
2023-01-21T06:21:00.858Z,2.40
2023-01-21T06:26:03.015Z,2.40
2023-01-21T06:28:32.435Z,3.10
2023-01-21T06:31:41.243Z,2.40
2023-01-21T06:34:15.414Z,2.40
2023-01-21T06:44:07.155Z,2.10
2023-01-21T06:46:43.367Z,2.20
2023-01-21T06:49:31.279Z,2.40
2023-01-21T06:52:23.547Z,2.10
2023-01-21T06:54:59.641Z,2.50
2023-01-21T06:57:30.970Z,2.40
2023-01-21T07:02:31.017Z,2.70
2023-01-21T07:07:28.303Z,2.40
2023-01-21T07:09:55.452Z,2.40
2023-01-21T07:12:22.734Z,3.90
2023-01-21T07:14:49.700Z,1.10
2023-01-21T07:17:17.070Z,2.90
2023-01-21T07:19:51.394Z,2.30
2023-01-21T07:27:17.095Z,2.60
2023-01-21T07:29:44.238Z,2.00
2023-01-21T07:32:13.873Z,2.00
2023-01-21T07:34:43.667Z,1.90
2023-01-21T07:39:55.091Z,2.00
2023-01-21T07:45:02.835Z,1.80
2023-01-21T07:52:43.063Z,1.70
2023-01-21T07:57:44.081Z,1.70
2023-01-21T08:00:11.734Z,1.60
2023-01-21T08:05:07.703Z,1.70
2023-01-21T08:07:38.809Z,1.70
2023-01-21T08:15:16.732Z,1.90
2023-01-21T08:20:46.798Z,1.60
2023-01-21T08:26:08.913Z,1.80
2023-01-21T08:28:42.693Z,1.90
2023-01-21T08:31:20.552Z,1.90
2023-01-21T08:33:48.052Z,2.00
2023-01-21T08:38:48.420Z,2.20
2023-01-21T08:43:56.528Z,2.30
2023-01-21T08:48:56.677Z,2.50
2023-01-21T08:53:53.615Z,2.50
2023-01-21T09:03:45.354Z,5.00
2023-01-21T09:06:12.692Z,2.70
2023-01-21T09:11:14.009Z,2.70
2023-01-21T09:16:16.130Z,3.30
2023-01-21T09:18:43.877Z,3.60
2023-01-21T09:21:20.825Z,2.80
2023-01-21T09:23:48.288Z,4.90
2023-01-21T09:26:20.793Z,4.10
2023-01-21T09:28:52.721Z,3.90
2023-01-21T09:31:26.416Z,4.10
2023-01-21T09:33:57.109Z,3.90
2023-01-21T09:36:29.260Z,5.00
2023-01-21T09:38:56.376Z,4.00
2023-01-21T09:41:31.499Z,3.80
2023-01-21T09:44:20.472Z,3.80
2023-01-21T09:47:06.621Z,5.50
2023-01-21T09:49:43.380Z,4.40
2023-01-21T09:52:23.614Z,4.60
2023-01-21T09:57:37.304Z,3.80
2023-01-21T10:00:23.799Z,3.80
2023-01-21T10:03:14.874Z,3.80
2023-01-21T10:06:00.987Z,3.80
2023-01-21T10:09:04.860Z,4.70
2023-01-21T10:11:38.364Z,4.70
2023-01-21T10:14:30.017Z,3.90
2023-01-21T10:17:18.295Z,3.80
2023-01-21T10:19:55.366Z,6.30
2023-01-21T10:22:34.758Z,3.90
2023-01-21T10:25:13.863Z,3.60
2023-01-21T10:27:42.797Z,3.80
2023-01-21T10:30:23.906Z,2.60
2023-01-21T10:32:53.232Z,3.70
2023-01-21T10:35:47.957Z,4.80
2023-01-21T10:38:34.043Z,3.70
2023-01-21T10:41:33.524Z,3.80
2023-01-21T10:44:14.089Z,3.70
2023-01-21T10:46:50.104Z,3.90
2023-01-21T10:49:50.268Z,3.70
2023-01-21T10:52:52.079Z,3.00
2023-01-21T10:55:34.366Z,3.30
2023-01-21T10:58:14.616Z,3.50
2023-01-21T11:00:47.450Z,3.50
2023-01-21T11:03:25.518Z,3.70
2023-01-21T11:08:26.051Z,3.50
2023-01-21T11:10:55.414Z,3.40
2023-01-21T11:15:57.296Z,3.90
2023-01-21T11:18:40.794Z,3.40
2023-01-21T11:21:23.320Z,4.00
2023-01-21T11:23:57.569Z,3.30
2023-01-21T11:26:34.072Z,3.50
2023-01-21T11:29:09.289Z,3.40
2023-01-21T11:34:18.603Z,3.40
2023-01-21T11:37:06.906Z,3.50
2023-01-21T11:39:52.268Z,3.20
2023-01-21T11:44:55.616Z,3.60
2023-01-21T11:47:38.709Z,3.60
2023-01-21T11:50:13.142Z,3.90
2023-01-21T11:52:40.232Z,3.60
2023-01-21T11:55:22.720Z,3.50
2023-01-21T11:57:53.247Z,3.60
2023-01-21T12:00:25.265Z,3.90
2023-01-21T12:02:56.902Z,4.20
2023-01-21T12:05:34.777Z,4.40
2023-01-21T12:08:04.756Z,4.30
2023-01-21T12:10:43.171Z,4.50
2023-01-21T12:13:37.412Z,4.60
2023-01-21T12:16:20.853Z,4.50
2023-01-21T12:19:10.033Z,3.60
2023-01-21T12:21:56.822Z,4.40
2023-01-21T12:24:39.112Z,4.20
2023-01-21T12:27:32.708Z,2.60
2023-01-21T12:30:21.469Z,3.80
2023-01-21T12:32:56.727Z,3.50
2023-01-21T12:35:36.633Z,3.50
2023-01-21T12:38:11.022Z,3.60
2023-01-21T12:40:45.925Z,3.10
2023-01-21T12:43:20.918Z,3.60
2023-01-21T12:46:11.793Z,3.60
2023-01-21T12:48:47.025Z,3.70
2023-01-21T12:51:23.680Z,3.80
2023-01-21T12:54:21.365Z,4.40
2023-01-21T12:56:57.271Z,3.60
2023-01-21T12:59:51.449Z,3.50
2023-01-21T13:02:26.308Z,3.60
2023-01-21T13:05:05.409Z,3.70
2023-01-21T13:07:47.760Z,3.80
2023-01-21T13:10:17.700Z,4.50
2023-01-21T13:12:49.902Z,3.90
2023-01-21T13:15:20.927Z,4.10
2023-01-21T13:17:55.560Z,4.10
2023-01-21T13:20:23.925Z,4.00
2023-01-21T13:23:09.460Z,4.00
2023-01-21T13:25:59.323Z,2.90
2023-01-21T13:28:45.848Z,3.80
2023-01-21T13:31:34.056Z,3.80
2023-01-21T13:34:13.045Z,3.80
2023-01-21T13:37:02.968Z,3.60
2023-01-21T13:39:33.124Z,3.50
2023-01-21T13:42:16.261Z,4.30
2023-01-21T13:45:05.384Z,3.30
2023-01-21T13:47:49.398Z,3.20
2023-01-21T13:50:41.916Z,3.20
2023-01-21T13:53:24.506Z,3.20
2023-01-21T13:55:58.083Z,3.10
2023-01-21T13:58:41.062Z,3.00
2023-01-21T14:01:25.090Z,3.00
2023-01-21T14:04:04.793Z,3.00
2023-01-21T14:09:29.634Z,2.70
2023-01-21T14:14:49.210Z,2.40
2023-01-21T14:17:19.133Z,2.30
2023-01-21T14:20:18.222Z,2.40
2023-01-21T14:23:04.175Z,3.60
2023-01-21T14:26:08.891Z,2.30
2023-01-21T14:28:51.682Z,2.30
2023-01-21T14:31:24.180Z,2.80
2023-01-21T14:36:40.803Z,2.20
2023-01-21T14:39:31.833Z,2.20
2023-01-21T14:42:13.319Z,1.50
2023-01-21T14:44:49.546Z,2.20
2023-01-21T14:47:19.897Z,2.20
2023-01-21T14:49:54.207Z,2.20
2023-01-21T14:52:43.939Z,2.10
2023-01-21T14:55:27.850Z,2.00
2023-01-21T14:57:57.350Z,2.00
2023-01-21T15:00:30.189Z,2.00
2023-01-21T15:03:29.845Z,4.00
2023-01-21T15:06:09.359Z,2.30
2023-01-21T15:08:46.884Z,2.00
2023-01-21T15:11:37.659Z,2.00
2023-01-21T15:14:21.949Z,1.80
2023-01-21T15:16:49.361Z,1.60
2023-01-21T15:19:23.060Z,1.90
2023-01-21T15:22:10.216Z,1.90
2023-01-21T15:24:37.499Z,1.90
2023-01-21T15:27:28.313Z,1.80
2023-01-21T15:30:00.570Z,0.20
2023-01-21T15:32:32.403Z,1.80
2023-01-21T15:35:22.732Z,1.80
2023-01-21T15:38:02.953Z,1.70
2023-01-21T15:41:05.827Z,2.90
2023-01-21T15:43:56.707Z,1.80
2023-01-21T15:46:32.748Z,1.80
2023-01-21T15:49:13.970Z,1.80
2023-01-21T15:52:06.063Z,1.40
2023-01-21T15:57:19.163Z,1.70
2023-01-21T16:00:10.213Z,1.60
2023-01-21T16:02:59.351Z,1.60
2023-01-21T16:05:48.158Z,2.20
2023-01-21T16:08:44.121Z,1.70
2023-01-21T16:11:41.140Z,1.70
2023-01-21T16:14:14.524Z,1.70
2023-01-21T16:17:15.616Z,1.60
2023-01-21T16:19:46.150Z,1.50
2023-01-21T16:22:19.067Z,2.00
2023-01-21T16:24:52.376Z,1.70
2023-01-21T16:27:28.404Z,2.20
2023-01-21T16:30:00.410Z,1.70
2023-01-21T16:34:55.032Z,2.50
2023-01-21T16:37:27.299Z,0.30
2023-01-21T16:39:58.268Z,1.60
2023-01-21T16:42:33.107Z,1.70
2023-01-21T16:45:01.049Z,1.70
2023-01-21T16:47:36.414Z,1.70
2023-01-21T16:50:05.593Z,1.70
2023-01-21T16:55:00.267Z,1.80
2023-01-21T16:57:31.811Z,1.60
2023-01-21T17:00:02.190Z,1.70
2023-01-21T17:02:32.840Z,2.00
2023-01-21T17:05:04.597Z,1.70
2023-01-21T17:07:34.991Z,1.70
2023-01-21T17:10:01.816Z,2.30
2023-01-21T17:12:30.870Z,1.30
2023-01-21T17:15:02.024Z,1.60
2023-01-21T17:17:34.333Z,1.70
2023-01-21T17:22:33.418Z,1.50
2023-01-21T17:27:28.837Z,1.40
2023-01-21T17:30:25.344Z,1.50
2023-01-21T17:32:58.421Z,1.50
2023-01-21T17:35:27.384Z,1.50
2023-01-21T17:40:45.540Z,1.50
2023-01-21T17:43:26.058Z,0.70
2023-01-21T17:45:55.500Z,1.50
2023-01-21T17:48:37.765Z,1.50
2023-01-21T17:51:31.873Z,1.40
2023-01-21T17:54:06.453Z,1.40
2023-01-21T17:56:38.102Z,1.30
2023-01-21T17:59:25.979Z,1.30
2023-01-21T18:01:56.216Z,2.20
2023-01-21T18:04:23.372Z,1.40
2023-01-21T18:06:53.057Z,1.40
2023-01-21T18:09:28.029Z,2.10
2023-01-21T18:11:57.846Z,1.40
2023-01-21T18:14:26.295Z,1.10
2023-01-21T18:19:36.015Z,1.50
2023-01-21T18:22:06.159Z,1.40
2023-01-21T18:29:31.054Z,0.00
2023-01-21T18:31:58.875Z,1.40
2023-01-21T18:34:26.352Z,2.00
2023-01-21T18:37:00.546Z,1.40
2023-01-21T18:39:27.666Z,1.70
2023-01-21T18:41:54.661Z,1.30
2023-01-21T18:44:21.888Z,1.60
2023-01-21T18:49:18.763Z,1.40
2023-01-21T18:51:46.372Z,1.30
2023-01-21T18:54:15.877Z,1.60
2023-01-21T18:56:44.232Z,1.80
2023-01-21T18:59:19.224Z,1.30
2023-01-21T19:01:46.280Z,1.10
2023-01-21T19:04:15.821Z,1.50
2023-01-21T19:06:43.192Z,1.20
2023-01-21T19:09:35.726Z,1.20
2023-01-21T19:14:30.180Z,1.30
2023-01-21T19:16:57.115Z,1.30
2023-01-21T19:19:25.497Z,1.30
2023-01-21T19:26:47.908Z,2.10
2023-01-21T19:29:16.509Z,1.50
2023-01-21T19:31:43.666Z,1.60
2023-01-21T19:34:10.694Z,1.60
2023-01-21T19:36:39.306Z,1.60
2023-01-21T19:39:19.243Z,1.60
2023-01-21T19:41:46.375Z,1.70
2023-01-21T19:44:13.513Z,1.60
2023-01-21T19:46:40.825Z,1.60
2023-01-21T19:49:16.159Z,2.50
2023-01-21T19:51:44.296Z,1.70
2023-01-21T19:54:11.563Z,1.70
2023-01-21T19:59:06.214Z,1.50
2023-01-21T20:06:38.198Z,1.80
2023-01-21T20:09:14.688Z,1.70
2023-01-21T20:16:47.702Z,1.80
2023-01-21T20:21:54.985Z,1.90
2023-01-21T20:24:30.139Z,4.40
2023-01-21T20:26:58.749Z,1.30
2023-01-21T20:29:27.046Z,3.60
2023-01-21T20:31:54.535Z,1.70
2023-01-21T20:34:21.751Z,1.90
2023-01-21T20:36:50.868Z,1.40
2023-01-21T20:39:17.895Z,1.70
2023-01-21T20:41:44.900Z,2.40
2023-01-21T20:44:12.083Z,2.10
2023-01-21T20:49:11.847Z,1.90
2023-01-21T20:56:33.881Z,1.80
2023-01-21T20:59:01.135Z,0.30
2023-01-21T21:01:29.242Z,1.80
2023-01-21T21:03:56.138Z,1.80
2023-01-21T21:06:26.020Z,2.30
2023-01-21T21:08:53.271Z,0.50
2023-01-21T21:11:20.650Z,2.20
2023-01-21T21:13:51.812Z,1.80
2023-01-21T21:16:28.668Z,0.50
2023-01-21T21:18:56.386Z,1.60
2023-01-21T21:21:24.089Z,2.00
2023-01-21T21:26:24.246Z,1.10
2023-01-21T21:28:57.327Z,0.50
2023-01-21T21:31:26.069Z,1.50
2023-01-21T21:33:53.621Z,2.10
2023-01-21T21:36:23.808Z,1.60
2023-01-21T21:41:41.191Z,1.40
2023-01-21T21:44:09.394Z,0.80
2023-01-21T21:46:55.998Z,1.40
2023-01-21T21:49:23.355Z,1.30
2023-01-21T21:51:50.405Z,1.20
2023-01-21T21:54:18.497Z,1.40
2023-01-21T21:56:45.900Z,1.30
2023-01-21T21:59:13.341Z,1.30
2023-01-21T22:01:42.633Z,1.30
2023-01-21T22:04:09.781Z,1.20
2023-01-21T22:19:00.331Z,1.30
2023-01-21T22:21:34.227Z,1.30
2023-01-21T22:24:08.428Z,1.70
2023-01-21T22:29:04.242Z,1.10
2023-01-21T22:31:32.485Z,1.00
2023-01-21T22:34:02.953Z,1.20
2023-01-21T22:36:31.230Z,2.20
2023-01-21T22:41:26.205Z,-0.50
2023-01-21T22:43:54.416Z,0.90
2023-01-21T22:46:27.123Z,0.10
2023-01-21T22:48:54.873Z,-0.30
2023-01-21T22:56:23.413Z,1.00
2023-01-21T22:58:50.826Z,2.10
2023-01-21T23:01:29.545Z,0.80
2023-01-21T23:04:00.372Z,0.80
2023-01-21T23:06:30.468Z,1.10
2023-01-21T23:13:54.149Z,0.90
2023-01-21T23:16:21.437Z,0.80
2023-01-21T23:21:19.312Z,0.80
2023-01-21T23:26:14.747Z,0.60
2023-01-21T23:28:43.067Z,0.90
2023-01-21T23:31:14.047Z,0.80
2023-01-21T23:33:41.820Z,-0.10
2023-01-21T23:36:12.931Z,1.00
2023-01-21T23:38:41.399Z,0.80
2023-01-21T23:41:10.532Z,0.80
2023-01-21T23:46:07.191Z,0.90
2023-01-21T23:48:34.319Z,1.30
2023-01-21T23:51:03.906Z,0.40
2023-01-21T23:53:31.936Z,1.10
2023-01-21T23:56:14.694Z,0.90
2023-01-21T23:58:41.948Z,1.10
